Whigham, Georgia
Current Conditions -  °F | °C
As of 1:55 PM on Sunday 23 Nov 2014 (Local Time) from KBGE Reporting Station
Overcast Overcast  
Wind Chill: 73°   Ceiling: 1000
Heat Index: 73°   Visibility: 10mi
Dew Point: 72°   Wind: 13mph
Humidity: 94%   Direction: 170°S
Pressure: 29.75"   Gusts: 20mph
Location:  30.88°N, 84.32°W
Report Text: KBGE 231855Z AUTO 17011G17KT 10SM BKN010 OVC014 23/22 A2975 RMK AO2 LTG DSNT SW
Loading
Personal Weather Stations






























Interactive Weather Map New forecast layout! Learn more

10-Day Weather Forecast

Advertisements
Track Severe Weather on mobile